sensor_id;sensor_type;location;lat;lon;timestamp;temperature;humidity
14771;DHT22;7477;45.222;5.688;2022-11-23T00:03:18;5.70;99.90
14771;DHT22;7477;45.222;5.688;2022-11-23T00:06:37;5.70;99.90
14771;DHT22;7477;45.222;5.688;2022-11-23T00:09:56;5.70;99.90
14771;DHT22;7477;45.222;5.688;2022-11-23T00:13:16;5.60;99.90
14771;DHT22;7477;45.222;5.688;2022-11-23T00:16:35;5.50;99.90
14771;DHT22;7477;45.222;5.688;2022-11-23T00:19:54;5.50;99.90
14771;DHT22;7477;45.222;5.688;2022-11-23T00:23:13;5.50;99.90
14771;DHT22;7477;45.222;5.688;2022-11-23T00:26:32;5.50;99.90
14771;DHT22;7477;45.222;5.688;2022-11-23T00:29:52;5.50;99.90
14771;DHT22;7477;45.222;5.688;2022-11-23T00:33:11;5.40;99.90
14771;DHT22;7477;45.222;5.688;2022-11-23T00:36:30;5.50;99.90
14771;DHT22;7477;45.222;5.688;2022-11-23T00:39:49;5.50;99.90
14771;DHT22;7477;45.222;5.688;2022-11-23T00:43:08;5.60;99.90
14771;DHT22;7477;45.222;5.688;2022-11-23T00:46:27;5.70;99.90
14771;DHT22;7477;45.222;5.688;2022-11-23T00:49:46;6.20;99.90
14771;DHT22;7477;45.222;5.688;2022-11-23T00:53:06;5.90;99.90
14771;DHT22;7477;45.222;5.688;2022-11-23T00:56:26;5.80;99.90
14771;DHT22;7477;45.222;5.688;2022-11-23T00:59:46;5.60;99.90
14771;DHT22;7477;45.222;5.688;2022-11-23T01:03:05;5.70;99.90
14771;DHT22;7477;45.222;5.688;2022-11-23T01:06:27;5.60;99.90
14771;DHT22;7477;45.222;5.688;2022-11-23T01:09:46;5.50;99.90
14771;DHT22;7477;45.222;5.688;2022-11-23T01:13:06;5.50;99.90
14771;DHT22;7477;45.222;5.688;2022-11-23T01:16:30;5.40;99.90
14771;DHT22;7477;45.222;5.688;2022-11-23T01:19:49;5.40;99.90
14771;DHT22;7477;45.222;5.688;2022-11-23T01:23:08;5.30;99.90
14771;DHT22;7477;45.222;5.688;2022-11-23T01:26:27;5.30;99.90
14771;DHT22;7477;45.222;5.688;2022-11-23T01:29:47;5.30;99.90
14771;DHT22;7477;45.222;5.688;2022-11-23T01:33:06;5.30;99.90
14771;DHT22;7477;45.222;5.688;2022-11-23T01:36:27;5.40;99.90
14771;DHT22;7477;45.222;5.688;2022-11-23T01:39:47;5.40;99.90
14771;DHT22;7477;45.222;5.688;2022-11-23T01:43:13;5.30;99.90
14771;DHT22;7477;45.222;5.688;2022-11-23T01:46:33;5.30;99.90
14771;DHT22;7477;45.222;5.688;2022-11-23T01:49:52;5.30;99.90
14771;DHT22;7477;45.222;5.688;2022-11-23T01:53:12;5.30;99.90
14771;DHT22;7477;45.222;5.688;2022-11-23T01:56:37;5.30;99.90
14771;DHT22;7477;45.222;5.688;2022-11-23T01:59:58;5.40;99.90
14771;DHT22;7477;45.222;5.688;2022-11-23T02:16:26;5.20;99.90
14771;DHT22;7477;45.222;5.688;2022-11-23T02:27:09;5.40;99.90
14771;DHT22;7477;45.222;5.688;2022-11-23T02:30:29;5.40;99.90
14771;DHT22;7477;45.222;5.688;2022-11-23T02:33:49;5.40;99.90
14771;DHT22;7477;45.222;5.688;2022-11-23T02:37:08;5.40;99.90
14771;DHT22;7477;45.222;5.688;2022-11-23T02:40:31;5.40;99.90
14771;DHT22;7477;45.222;5.688;2022-11-23T02:43:53;5.40;99.90
14771;DHT22;7477;45.222;5.688;2022-11-23T02:47:14;5.40;99.90
14771;DHT22;7477;45.222;5.688;2022-11-23T02:50:33;5.40;99.90
14771;DHT22;7477;45.222;5.688;2022-11-23T02:53:53;5.30;99.90
14771;DHT22;7477;45.222;5.688;2022-11-23T02:57:12;5.20;99.90
14771;DHT22;7477;45.222;5.688;2022-11-23T03:00:32;5.10;99.90
14771;DHT22;7477;45.222;5.688;2022-11-23T03:03:51;5.10;99.90
14771;DHT22;7477;45.222;5.688;2022-11-23T03:07:10;5.10;99.90
14771;DHT22;7477;45.222;5.688;2022-11-23T03:10:29;5.00;99.90
14771;DHT22;7477;45.222;5.688;2022-11-23T03:13:48;5.00;99.90
14771;DHT22;7477;45.222;5.688;2022-11-23T03:17:07;5.00;99.90
14771;DHT22;7477;45.222;5.688;2022-11-23T03:20:27;5.00;99.90
14771;DHT22;7477;45.222;5.688;2022-11-23T03:23:46;5.00;99.90
14771;DHT22;7477;45.222;5.688;2022-11-23T03:27:06;4.90;99.90
14771;DHT22;7477;45.222;5.688;2022-11-23T03:30:25;4.90;99.90
14771;DHT22;7477;45.222;5.688;2022-11-23T03:33:44;4.90;99.90
14771;DHT22;7477;45.222;5.688;2022-11-23T03:37:03;4.80;99.90
14771;DHT22;7477;45.222;5.688;2022-11-23T03:40:22;4.90;99.90
14771;DHT22;7477;45.222;5.688;2022-11-23T03:43:41;4.90;99.90
14771;DHT22;7477;45.222;5.688;2022-11-23T03:47:01;4.90;99.90
14771;DHT22;7477;45.222;5.688;2022-11-23T03:50:21;5.00;99.90
14771;DHT22;7477;45.222;5.688;2022-11-23T03:53:40;4.90;99.90
14771;DHT22;7477;45.222;5.688;2022-11-23T03:57:00;4.90;99.90
14771;DHT22;7477;45.222;5.688;2022-11-23T04:00:19;4.90;99.90
14771;DHT22;7477;45.222;5.688;2022-11-23T04:03:39;5.00;99.90
14771;DHT22;7477;45.222;5.688;2022-11-23T04:06:58;5.00;99.90
14771;DHT22;7477;45.222;5.688;2022-11-23T04:10:18;5.10;99.90
14771;DHT22;7477;45.222;5.688;2022-11-23T04:13:37;5.00;99.90
14771;DHT22;7477;45.222;5.688;2022-11-23T04:16:57;5.00;99.90
14771;DHT22;7477;45.222;5.688;2022-11-23T04:20:16;4.90;99.90
14771;DHT22;7477;45.222;5.688;2022-11-23T04:23:36;4.90;99.90
14771;DHT22;7477;45.222;5.688;2022-11-23T04:26:55;4.90;99.90
14771;DHT22;7477;45.222;5.688;2022-11-23T04:30:15;4.90;99.90
14771;DHT22;7477;45.222;5.688;2022-11-23T04:33:34;5.00;99.90
14771;DHT22;7477;45.222;5.688;2022-11-23T04:36:53;5.20;99.90
14771;DHT22;7477;45.222;5.688;2022-11-23T04:40:13;5.50;99.90
14771;DHT22;7477;45.222;5.688;2022-11-23T04:43:32;5.10;99.90
14771;DHT22;7477;45.222;5.688;2022-11-23T04:46:52;5.00;99.90
14771;DHT22;7477;45.222;5.688;2022-11-23T04:50:11;4.90;99.90
14771;DHT22;7477;45.222;5.688;2022-11-23T04:53:30;4.90;99.90
14771;DHT22;7477;45.222;5.688;2022-11-23T04:56:50;5.00;99.90
14771;DHT22;7477;45.222;5.688;2022-11-23T05:00:09;5.00;99.90
14771;DHT22;7477;45.222;5.688;2022-11-23T05:03:29;4.90;99.90
14771;DHT22;7477;45.222;5.688;2022-11-23T05:06:49;4.90;99.90
14771;DHT22;7477;45.222;5.688;2022-11-23T05:10:08;4.90;99.90
14771;DHT22;7477;45.222;5.688;2022-11-23T05:13:28;4.90;99.90
14771;DHT22;7477;45.222;5.688;2022-11-23T05:16:47;5.00;99.90
14771;DHT22;7477;45.222;5.688;2022-11-23T05:20:06;5.00;99.90
14771;DHT22;7477;45.222;5.688;2022-11-23T05:23:25;5.00;99.90
14771;DHT22;7477;45.222;5.688;2022-11-23T05:26:45;5.00;99.90
14771;DHT22;7477;45.222;5.688;2022-11-23T05:30:04;4.60;99.90
14771;DHT22;7477;45.222;5.688;2022-11-23T05:33:24;5.10;99.90
14771;DHT22;7477;45.222;5.688;2022-11-23T05:36:44;5.20;99.90
14771;DHT22;7477;45.222;5.688;2022-11-23T05:40:04;5.10;99.90
14771;DHT22;7477;45.222;5.688;2022-11-23T05:43:24;5.00;99.90
14771;DHT22;7477;45.222;5.688;2022-11-23T05:46:43;5.10;99.90
14771;DHT22;7477;45.222;5.688;2022-11-23T05:50:03;5.10;99.90
14771;DHT22;7477;45.222;5.688;2022-11-23T05:53:22;5.10;99.90
14771;DHT22;7477;45.222;5.688;2022-11-23T05:56:42;5.10;99.90
14771;DHT22;7477;45.222;5.688;2022-11-23T06:00:03;5.10;99.90
14771;DHT22;7477;45.222;5.688;2022-11-23T06:03:23;5.10;99.90
14771;DHT22;7477;45.222;5.688;2022-11-23T06:06:42;5.10;99.90
14771;DHT22;7477;45.222;5.688;2022-11-23T06:10:02;5.10;99.90
14771;DHT22;7477;45.222;5.688;2022-11-23T06:13:22;5.10;99.90
14771;DHT22;7477;45.222;5.688;2022-11-23T06:16:41;5.10;99.90
14771;DHT22;7477;45.222;5.688;2022-11-23T06:20:00;5.20;99.90
14771;DHT22;7477;45.222;5.688;2022-11-23T06:23:19;5.20;99.90
14771;DHT22;7477;45.222;5.688;2022-11-23T06:26:38;5.20;99.90
14771;DHT22;7477;45.222;5.688;2022-11-23T06:29:58;5.30;99.90
14771;DHT22;7477;45.222;5.688;2022-11-23T06:33:17;5.20;99.90
14771;DHT22;7477;45.222;5.688;2022-11-23T06:36:36;5.20;99.90
14771;DHT22;7477;45.222;5.688;2022-11-23T06:39:55;5.10;99.90
14771;DHT22;7477;45.222;5.688;2022-11-23T06:43:14;5.00;99.90
14771;DHT22;7477;45.222;5.688;2022-11-23T06:46:33;5.10;99.90
14771;DHT22;7477;45.222;5.688;2022-11-23T06:49:52;5.10;99.90
14771;DHT22;7477;45.222;5.688;2022-11-23T06:53:12;5.10;99.90
14771;DHT22;7477;45.222;5.688;2022-11-23T06:56:31;5.10;99.90
14771;DHT22;7477;45.222;5.688;2022-11-23T06:59:50;5.10;99.90
14771;DHT22;7477;45.222;5.688;2022-11-23T07:03:18;5.10;99.90
14771;DHT22;7477;45.222;5.688;2022-11-23T07:06:39;5.20;99.90
14771;DHT22;7477;45.222;5.688;2022-11-23T07:09:59;5.20;99.90
14771;DHT22;7477;45.222;5.688;2022-11-23T07:13:18;5.20;99.90
14771;DHT22;7477;45.222;5.688;2022-11-23T07:16:37;5.20;99.90
14771;DHT22;7477;45.222;5.688;2022-11-23T07:19:57;5.20;99.90
14771;DHT22;7477;45.222;5.688;2022-11-23T07:23:16;5.20;99.90
14771;DHT22;7477;45.222;5.688;2022-11-23T07:26:35;5.30;99.90
14771;DHT22;7477;45.222;5.688;2022-11-23T07:29:54;5.20;99.90
14771;DHT22;7477;45.222;5.688;2022-11-23T07:33:13;5.30;99.90
14771;DHT22;7477;45.222;5.688;2022-11-23T07:36:32;5.40;99.90
14771;DHT22;7477;45.222;5.688;2022-11-23T07:39:51;5.40;99.90
14771;DHT22;7477;45.222;5.688;2022-11-23T07:43:10;5.40;99.90
14771;DHT22;7477;45.222;5.688;2022-11-23T07:46:30;5.40;99.90
14771;DHT22;7477;45.222;5.688;2022-11-23T07:49:49;5.40;99.90
14771;DHT22;7477;45.222;5.688;2022-11-23T07:53:09;5.40;99.90
14771;DHT22;7477;45.222;5.688;2022-11-23T07:56:29;5.40;99.90
14771;DHT22;7477;45.222;5.688;2022-11-23T07:59:48;5.50;99.90
14771;DHT22;7477;45.222;5.688;2022-11-23T08:03:10;5.50;99.90
14771;DHT22;7477;45.222;5.688;2022-11-23T08:06:31;5.50;99.90
14771;DHT22;7477;45.222;5.688;2022-11-23T08:09:50;5.50;99.90
14771;DHT22;7477;45.222;5.688;2022-11-23T08:13:09;5.60;99.90
14771;DHT22;7477;45.222;5.688;2022-11-23T08:16:28;5.60;99.90
14771;DHT22;7477;45.222;5.688;2022-11-23T08:19:48;5.60;99.90
14771;DHT22;7477;45.222;5.688;2022-11-23T08:23:08;5.50;99.90
14771;DHT22;7477;45.222;5.688;2022-11-23T08:26:28;5.60;99.90
14771;DHT22;7477;45.222;5.688;2022-11-23T08:29:47;5.50;99.90
14771;DHT22;7477;45.222;5.688;2022-11-23T08:33:08;5.60;99.90
14771;DHT22;7477;45.222;5.688;2022-11-23T08:36:27;5.70;99.90
14771;DHT22;7477;45.222;5.688;2022-11-23T08:39:46;5.70;99.90
14771;DHT22;7477;45.222;5.688;2022-11-23T08:43:05;8.10;99.90
14771;DHT22;7477;45.222;5.688;2022-11-23T08:46:25;9.30;99.90
14771;DHT22;7477;45.222;5.688;2022-11-23T08:49:45;9.60;99.90
14771;DHT22;7477;45.222;5.688;2022-11-23T08:53:04;9.30;99.90
14771;DHT22;7477;45.222;5.688;2022-11-23T08:56:23;8.40;99.90
14771;DHT22;7477;45.222;5.688;2022-11-23T08:59:42;7.00;99.90
14771;DHT22;7477;45.222;5.688;2022-11-23T09:03:02;6.40;99.90
14771;DHT22;7477;45.222;5.688;2022-11-23T09:06:21;6.50;99.90
14771;DHT22;7477;45.222;5.688;2022-11-23T09:09:46;6.90;99.90
14771;DHT22;7477;45.222;5.688;2022-11-23T09:13:06;6.80;99.90
14771;DHT22;7477;45.222;5.688;2022-11-23T09:16:25;6.50;99.90
14771;DHT22;7477;45.222;5.688;2022-11-23T09:19:44;6.60;99.90
14771;DHT22;7477;45.222;5.688;2022-11-23T09:23:03;6.30;99.90
14771;DHT22;7477;45.222;5.688;2022-11-23T09:26:23;6.20;99.90
14771;DHT22;7477;45.222;5.688;2022-11-23T09:29:43;6.20;99.90
14771;DHT22;7477;45.222;5.688;2022-11-23T09:33:02;6.20;99.90
14771;DHT22;7477;45.222;5.688;2022-11-23T09:36:22;6.30;99.90
14771;DHT22;7477;45.222;5.688;2022-11-23T09:39:41;6.30;99.90
14771;DHT22;7477;45.222;5.688;2022-11-23T09:50:47;6.30;99.90
14771;DHT22;7477;45.222;5.688;2022-11-23T09:57:31;6.40;99.90
14771;DHT22;7477;45.222;5.688;2022-11-23T10:00:59;6.40;99.90
14771;DHT22;7477;45.222;5.688;2022-11-23T10:04:20;6.40;99.90
14771;DHT22;7477;45.222;5.688;2022-11-23T10:15:19;6.60;99.90
14771;DHT22;7477;45.222;5.688;2022-11-23T10:18:56;6.50;99.90
14771;DHT22;7477;45.222;5.688;2022-11-23T10:22:21;6.50;99.90
14771;DHT22;7477;45.222;5.688;2022-11-23T10:25:48;6.50;99.90
14771;DHT22;7477;45.222;5.688;2022-11-23T10:29:30;6.50;99.90
14771;DHT22;7477;45.222;5.688;2022-11-23T10:33:23;6.60;99.90
14771;DHT22;7477;45.222;5.688;2022-11-23T10:36:44;6.60;99.90
14771;DHT22;7477;45.222;5.688;2022-11-23T10:40:17;6.60;99.90
14771;DHT22;7477;45.222;5.688;2022-11-23T10:44:27;6.60;99.90
14771;DHT22;7477;45.222;5.688;2022-11-23T10:47:38;6.70;99.90
14771;DHT22;7477;45.222;5.688;2022-11-23T10:51:15;6.70;99.90
14771;DHT22;7477;45.222;5.688;2022-11-23T10:54:38;6.70;99.90
14771;DHT22;7477;45.222;5.688;2022-11-23T10:57:59;6.70;99.90
14771;DHT22;7477;45.222;5.688;2022-11-23T11:01:21;6.80;99.90
14771;DHT22;7477;45.222;5.688;2022-11-23T11:04:42;6.80;99.90
14771;DHT22;7477;45.222;5.688;2022-11-23T11:08:12;6.90;99.90
14771;DHT22;7477;45.222;5.688;2022-11-23T11:11:35;6.90;99.90
14771;DHT22;7477;45.222;5.688;2022-11-23T11:18:31;7.00;99.90
14771;DHT22;7477;45.222;5.688;2022-11-23T11:21:51;7.10;99.90
14771;DHT22;7477;45.222;5.688;2022-11-23T11:25:35;7.10;99.90
14771;DHT22;7477;45.222;5.688;2022-11-23T11:28:59;7.10;99.90
14771;DHT22;7477;45.222;5.688;2022-11-23T11:35:57;7.10;99.90
14771;DHT22;7477;45.222;5.688;2022-11-23T11:40:09;7.10;99.90
14771;DHT22;7477;45.222;5.688;2022-11-23T11:46:34;7.10;99.90
14771;DHT22;7477;45.222;5.688;2022-11-23T11:49:56;7.10;99.90
14771;DHT22;7477;45.222;5.688;2022-11-23T12:00:36;7.20;99.90
14771;DHT22;7477;45.222;5.688;2022-11-23T12:04:00;7.30;99.90
14771;DHT22;7477;45.222;5.688;2022-11-23T12:07:28;7.20;99.90
14771;DHT22;7477;45.222;5.688;2022-11-23T12:10:51;7.30;99.90
14771;DHT22;7477;45.222;5.688;2022-11-23T12:14:13;7.20;99.90
14771;DHT22;7477;45.222;5.688;2022-11-23T12:18:07;7.20;99.90
14771;DHT22;7477;45.222;5.688;2022-11-23T12:25:35;7.30;99.90
14771;DHT22;7477;45.222;5.688;2022-11-23T12:29:00;7.30;99.90
14771;DHT22;7477;45.222;5.688;2022-11-23T12:32:46;7.40;99.90
14771;DHT22;7477;45.222;5.688;2022-11-23T12:43:57;7.30;99.90
14771;DHT22;7477;45.222;5.688;2022-11-23T12:58:29;7.30;99.90
14771;DHT22;7477;45.222;5.688;2022-11-23T13:01:52;7.40;99.90
14771;DHT22;7477;45.222;5.688;2022-11-23T13:09:00;7.30;99.90
14771;DHT22;7477;45.222;5.688;2022-11-23T13:16:12;7.40;99.90
14771;DHT22;7477;45.222;5.688;2022-11-23T13:23:11;7.40;99.90
14771;DHT22;7477;45.222;5.688;2022-11-23T13:26:31;7.30;99.90
14771;DHT22;7477;45.222;5.688;2022-11-23T13:36:58;7.40;99.90
14771;DHT22;7477;45.222;5.688;2022-11-23T13:40:26;7.40;99.90
14771;DHT22;7477;45.222;5.688;2022-11-23T13:43:46;7.40;99.90
14771;DHT22;7477;45.222;5.688;2022-11-23T13:50:27;7.40;99.90
14771;DHT22;7477;45.222;5.688;2022-11-23T13:53:53;7.50;99.90
14771;DHT22;7477;45.222;5.688;2022-11-23T13:57:13;7.50;99.90
14771;DHT22;7477;45.222;5.688;2022-11-23T14:00:54;7.50;99.90
14771;DHT22;7477;45.222;5.688;2022-11-23T14:04:28;7.50;99.90
14771;DHT22;7477;45.222;5.688;2022-11-23T14:07:48;7.50;99.90
14771;DHT22;7477;45.222;5.688;2022-11-23T14:11:16;7.50;99.90
14771;DHT22;7477;45.222;5.688;2022-11-23T14:36:38;7.90;99.90
14771;DHT22;7477;45.222;5.688;2022-11-23T14:43:39;7.80;99.90
14771;DHT22;7477;45.222;5.688;2022-11-23T14:47:08;7.80;99.90
14771;DHT22;7477;45.222;5.688;2022-11-23T14:50:28;7.80;99.90
14771;DHT22;7477;45.222;5.688;2022-11-23T14:53:49;7.80;99.90
14771;DHT22;7477;45.222;5.688;2022-11-23T14:57:11;7.70;99.90
14771;DHT22;7477;45.222;5.688;2022-11-23T15:00:35;7.70;99.90
14771;DHT22;7477;45.222;5.688;2022-11-23T15:03:59;7.70;99.90
14771;DHT22;7477;45.222;5.688;2022-11-23T15:07:27;7.70;99.90
14771;DHT22;7477;45.222;5.688;2022-11-23T15:11:10;7.70;99.90
14771;DHT22;7477;45.222;5.688;2022-11-23T15:14:30;7.70;99.90
14771;DHT22;7477;45.222;5.688;2022-11-23T15:21:14;7.60;99.90
14771;DHT22;7477;45.222;5.688;2022-11-23T15:24:35;7.60;99.90
14771;DHT22;7477;45.222;5.688;2022-11-23T15:27:54;7.60;99.90
14771;DHT22;7477;45.222;5.688;2022-11-23T15:31:35;7.60;99.90
14771;DHT22;7477;45.222;5.688;2022-11-23T15:34:56;7.70;99.90
14771;DHT22;7477;45.222;5.688;2022-11-23T15:38:17;7.60;99.90
14771;DHT22;7477;45.222;5.688;2022-11-23T15:41:38;7.60;99.90
14771;DHT22;7477;45.222;5.688;2022-11-23T15:44:58;7.60;99.90
14771;DHT22;7477;45.222;5.688;2022-11-23T15:48:37;7.60;99.90
14771;DHT22;7477;45.222;5.688;2022-11-23T15:52:00;7.60;99.90
14771;DHT22;7477;45.222;5.688;2022-11-23T15:55:20;7.60;99.90
14771;DHT22;7477;45.222;5.688;2022-11-23T15:58:46;7.60;99.90
14771;DHT22;7477;45.222;5.688;2022-11-23T16:05:34;7.50;99.90
14771;DHT22;7477;45.222;5.688;2022-11-23T16:08:53;7.50;99.90
14771;DHT22;7477;45.222;5.688;2022-11-23T16:12:20;7.50;99.90
14771;DHT22;7477;45.222;5.688;2022-11-23T16:15:40;7.30;99.90
14771;DHT22;7477;45.222;5.688;2022-11-23T16:19:00;7.30;99.90
14771;DHT22;7477;45.222;5.688;2022-11-23T16:22:36;7.30;99.90
14771;DHT22;7477;45.222;5.688;2022-11-23T16:26:00;7.40;99.90
14771;DHT22;7477;45.222;5.688;2022-11-23T16:29:23;7.60;99.90
14771;DHT22;7477;45.222;5.688;2022-11-23T16:32:42;7.60;99.90
14771;DHT22;7477;45.222;5.688;2022-11-23T16:36:01;7.70;99.90
14771;DHT22;7477;45.222;5.688;2022-11-23T16:39:24;7.50;99.90
14771;DHT22;7477;45.222;5.688;2022-11-23T16:42:50;7.50;99.90
14771;DHT22;7477;45.222;5.688;2022-11-23T16:46:10;7.40;99.90
14771;DHT22;7477;45.222;5.688;2022-11-23T16:49:29;7.40;99.90
14771;DHT22;7477;45.222;5.688;2022-11-23T16:52:49;7.40;99.90
14771;DHT22;7477;45.222;5.688;2022-11-23T16:56:10;7.50;99.90
14771;DHT22;7477;45.222;5.688;2022-11-23T16:59:32;7.50;99.90
14771;DHT22;7477;45.222;5.688;2022-11-23T17:02:52;7.50;99.90
14771;DHT22;7477;45.222;5.688;2022-11-23T17:06:12;7.50;99.90
14771;DHT22;7477;45.222;5.688;2022-11-23T17:09:33;7.60;99.90
14771;DHT22;7477;45.222;5.688;2022-11-23T17:12:54;7.60;99.90
14771;DHT22;7477;45.222;5.688;2022-11-23T17:16:20;7.60;99.90
14771;DHT22;7477;45.222;5.688;2022-11-23T17:19:40;7.60;99.90
14771;DHT22;7477;45.222;5.688;2022-11-23T17:22:59;7.60;99.90
14771;DHT22;7477;45.222;5.688;2022-11-23T17:29:59;7.70;99.90
14771;DHT22;7477;45.222;5.688;2022-11-23T17:33:18;7.70;99.90
14771;DHT22;7477;45.222;5.688;2022-11-23T17:36:38;7.70;99.90
14771;DHT22;7477;45.222;5.688;2022-11-23T17:39:58;7.70;99.90
14771;DHT22;7477;45.222;5.688;2022-11-23T17:43:17;7.60;99.90
14771;DHT22;7477;45.222;5.688;2022-11-23T17:46:37;7.70;99.90
14771;DHT22;7477;45.222;5.688;2022-11-23T17:49:57;7.60;99.90
14771;DHT22;7477;45.222;5.688;2022-11-23T17:53:17;7.60;99.90
14771;DHT22;7477;45.222;5.688;2022-11-23T17:56:36;7.70;99.90
14771;DHT22;7477;45.222;5.688;2022-11-23T17:59:56;7.70;99.90
14771;DHT22;7477;45.222;5.688;2022-11-23T18:03:16;7.60;99.90
14771;DHT22;7477;45.222;5.688;2022-11-23T18:06:35;7.60;99.90
14771;DHT22;7477;45.222;5.688;2022-11-23T18:09:55;7.60;99.90
14771;DHT22;7477;45.222;5.688;2022-11-23T18:13:15;7.60;99.90
14771;DHT22;7477;45.222;5.688;2022-11-23T18:16:34;7.60;99.90
14771;DHT22;7477;45.222;5.688;2022-11-23T18:19:53;7.60;99.90
14771;DHT22;7477;45.222;5.688;2022-11-23T18:23:12;7.60;99.90
14771;DHT22;7477;45.222;5.688;2022-11-23T18:26:31;7.60;99.90
14771;DHT22;7477;45.222;5.688;2022-11-23T18:29:51;7.60;99.90
14771;DHT22;7477;45.222;5.688;2022-11-23T18:33:10;7.50;99.90
14771;DHT22;7477;45.222;5.688;2022-11-23T18:36:30;7.60;99.90
14771;DHT22;7477;45.222;5.688;2022-11-23T18:39:49;7.50;99.90
14771;DHT22;7477;45.222;5.688;2022-11-23T18:43:08;7.40;99.90
14771;DHT22;7477;45.222;5.688;2022-11-23T18:46:27;7.40;99.90
14771;DHT22;7477;45.222;5.688;2022-11-23T18:49:47;7.40;99.90
14771;DHT22;7477;45.222;5.688;2022-11-23T18:53:06;7.50;99.90
14771;DHT22;7477;45.222;5.688;2022-11-23T18:56:26;7.40;99.90
14771;DHT22;7477;45.222;5.688;2022-11-23T18:59:45;7.40;99.90
14771;DHT22;7477;45.222;5.688;2022-11-23T19:03:04;7.40;99.90
14771;DHT22;7477;45.222;5.688;2022-11-23T19:06:24;7.30;99.90
14771;DHT22;7477;45.222;5.688;2022-11-23T19:09:43;7.30;99.90
14771;DHT22;7477;45.222;5.688;2022-11-23T19:13:02;7.30;99.90
14771;DHT22;7477;45.222;5.688;2022-11-23T19:16:27;7.30;99.90
14771;DHT22;7477;45.222;5.688;2022-11-23T19:19:48;7.40;99.90
14771;DHT22;7477;45.222;5.688;2022-11-23T19:23:07;7.40;99.90
14771;DHT22;7477;45.222;5.688;2022-11-23T19:26:28;7.50;99.90
14771;DHT22;7477;45.222;5.688;2022-11-23T19:29:48;7.50;99.90
14771;DHT22;7477;45.222;5.688;2022-11-23T19:33:07;7.50;99.90
14771;DHT22;7477;45.222;5.688;2022-11-23T19:36:27;7.40;99.90
14771;DHT22;7477;45.222;5.688;2022-11-23T19:39:46;7.50;99.90
14771;DHT22;7477;45.222;5.688;2022-11-23T19:43:06;7.50;99.90
14771;DHT22;7477;45.222;5.688;2022-11-23T19:46:25;7.50;99.90
14771;DHT22;7477;45.222;5.688;2022-11-23T19:49:45;7.50;99.90
14771;DHT22;7477;45.222;5.688;2022-11-23T19:53:04;7.50;99.90
14771;DHT22;7477;45.222;5.688;2022-11-23T19:56:24;7.50;99.90
14771;DHT22;7477;45.222;5.688;2022-11-23T19:59:44;7.50;99.90
14771;DHT22;7477;45.222;5.688;2022-11-23T20:03:03;7.40;99.90
14771;DHT22;7477;45.222;5.688;2022-11-23T20:06:24;7.40;99.90
14771;DHT22;7477;45.222;5.688;2022-11-23T20:09:44;7.30;99.90
14771;DHT22;7477;45.222;5.688;2022-11-23T20:13:05;7.30;99.90
14771;DHT22;7477;45.222;5.688;2022-11-23T20:16:26;7.30;99.90
14771;DHT22;7477;45.222;5.688;2022-11-23T20:19:45;7.30;99.90
14771;DHT22;7477;45.222;5.688;2022-11-23T20:23:04;7.30;99.90
14771;DHT22;7477;45.222;5.688;2022-11-23T20:26:25;7.30;99.90
14771;DHT22;7477;45.222;5.688;2022-11-23T20:29:45;7.40;99.90
14771;DHT22;7477;45.222;5.688;2022-11-23T20:33:04;7.40;99.90
14771;DHT22;7477;45.222;5.688;2022-11-23T20:36:28;7.40;99.90
14771;DHT22;7477;45.222;5.688;2022-11-23T20:39:48;7.40;99.90
14771;DHT22;7477;45.222;5.688;2022-11-23T20:43:07;7.40;99.90
14771;DHT22;7477;45.222;5.688;2022-11-23T20:46:27;7.40;99.90
14771;DHT22;7477;45.222;5.688;2022-11-23T20:49:46;7.40;99.90
14771;DHT22;7477;45.222;5.688;2022-11-23T20:53:06;7.40;99.90
14771;DHT22;7477;45.222;5.688;2022-11-23T20:56:25;7.30;99.90
14771;DHT22;7477;45.222;5.688;2022-11-23T20:59:44;7.40;99.90
14771;DHT22;7477;45.222;5.688;2022-11-23T21:03:03;7.30;99.90
14771;DHT22;7477;45.222;5.688;2022-11-23T21:06:23;7.40;99.90
14771;DHT22;7477;45.222;5.688;2022-11-23T21:09:42;7.40;99.90
14771;DHT22;7477;45.222;5.688;2022-11-23T21:13:02;7.50;99.90
14771;DHT22;7477;45.222;5.688;2022-11-23T21:16:46;7.50;99.90
14771;DHT22;7477;45.222;5.688;2022-11-23T21:20:13;7.40;99.90
14771;DHT22;7477;45.222;5.688;2022-11-23T21:23:32;7.40;99.90
14771;DHT22;7477;45.222;5.688;2022-11-23T21:26:53;7.50;99.90
14771;DHT22;7477;45.222;5.688;2022-11-23T21:30:12;7.40;99.90
14771;DHT22;7477;45.222;5.688;2022-11-23T21:33:32;7.50;99.90
14771;DHT22;7477;45.222;5.688;2022-11-23T21:36:52;7.50;99.90
14771;DHT22;7477;45.222;5.688;2022-11-23T21:40:12;7.50;99.90
14771;DHT22;7477;45.222;5.688;2022-11-23T21:43:32;7.50;99.90
14771;DHT22;7477;45.222;5.688;2022-11-23T21:46:52;7.50;99.90
14771;DHT22;7477;45.222;5.688;2022-11-23T21:50:12;7.50;99.90
14771;DHT22;7477;45.222;5.688;2022-11-23T21:53:33;7.50;99.90
14771;DHT22;7477;45.222;5.688;2022-11-23T21:56:53;7.60;99.90
14771;DHT22;7477;45.222;5.688;2022-11-23T22:00:12;7.50;99.90
14771;DHT22;7477;45.222;5.688;2022-11-23T22:03:37;7.50;99.90
14771;DHT22;7477;45.222;5.688;2022-11-23T22:06:56;7.50;99.90
14771;DHT22;7477;45.222;5.688;2022-11-23T22:10:16;7.50;99.90
14771;DHT22;7477;45.222;5.688;2022-11-23T22:13:35;7.50;99.90
14771;DHT22;7477;45.222;5.688;2022-11-23T22:16:54;7.50;99.90
14771;DHT22;7477;45.222;5.688;2022-11-23T22:20:14;7.60;99.90
14771;DHT22;7477;45.222;5.688;2022-11-23T22:23:35;7.50;99.90
14771;DHT22;7477;45.222;5.688;2022-11-23T22:26:55;7.50;99.90
14771;DHT22;7477;45.222;5.688;2022-11-23T22:30:15;7.50;99.90
14771;DHT22;7477;45.222;5.688;2022-11-23T22:33:35;7.40;99.90
14771;DHT22;7477;45.222;5.688;2022-11-23T22:36:54;7.40;99.90
14771;DHT22;7477;45.222;5.688;2022-11-23T22:40:14;7.40;99.90
14771;DHT22;7477;45.222;5.688;2022-11-23T22:43:33;7.50;99.90
14771;DHT22;7477;45.222;5.688;2022-11-23T22:46:53;7.50;99.90
14771;DHT22;7477;45.222;5.688;2022-11-23T22:50:12;7.50;99.90
14771;DHT22;7477;45.222;5.688;2022-11-23T22:53:32;7.40;99.90
14771;DHT22;7477;45.222;5.688;2022-11-23T22:56:51;7.50;99.90
14771;DHT22;7477;45.222;5.688;2022-11-23T23:00:10;7.50;99.90
14771;DHT22;7477;45.222;5.688;2022-11-23T23:03:30;7.40;99.90
14771;DHT22;7477;45.222;5.688;2022-11-23T23:06:50;7.40;99.90
14771;DHT22;7477;45.222;5.688;2022-11-23T23:10:09;7.40;99.90
14771;DHT22;7477;45.222;5.688;2022-11-23T23:13:29;7.40;99.90
14771;DHT22;7477;45.222;5.688;2022-11-23T23:16:48;7.40;99.90
14771;DHT22;7477;45.222;5.688;2022-11-23T23:20:08;7.30;99.90
14771;DHT22;7477;45.222;5.688;2022-11-23T23:23:28;7.30;99.90
14771;DHT22;7477;45.222;5.688;2022-11-23T23:26:47;7.30;99.90
14771;DHT22;7477;45.222;5.688;2022-11-23T23:30:07;7.30;99.90
14771;DHT22;7477;45.222;5.688;2022-11-23T23:33:27;7.40;99.90
14771;DHT22;7477;45.222;5.688;2022-11-23T23:36:47;7.30;99.90
14771;DHT22;7477;45.222;5.688;2022-11-23T23:40:07;7.30;99.90
14771;DHT22;7477;45.222;5.688;2022-11-23T23:43:29;7.20;99.90
14771;DHT22;7477;45.222;5.688;2022-11-23T23:46:49;7.20;99.90
14771;DHT22;7477;45.222;5.688;2022-11-23T23:50:09;7.10;99.90
14771;DHT22;7477;45.222;5.688;2022-11-23T23:53:30;7.00;99.90
14771;DHT22;7477;45.222;5.688;2022-11-23T23:56:49;7.00;99.90
